Flight Track Log - Related Links

Times and Time Zones

All times are in EDT time to prevent confusion due to time zone crossing. See the UPS1337 flight status page for this flight to view local times or setup timezone preferences in your user account.

Time Position Orientation Groundspeed Altitude Reporting Facility
EDT Latitude Longitude Course Direction KTS MPH feet Rate Location/Type
Fri 09:52:04 PM 27.9167 -82.6833 North 176 203 1,000  Level Tampa TRACON
Fri 09:53:42 PM 28.0078 -82.6692 North 194 223 4,800 2,679 Climbing Jacksonville Center
Fri 09:59:14 PM 28.5725 -82.5719 11° North 433 498 20,200 2,778 Climbing FlightAware ADS-B
Fri 09:59:47 PM 28.6373 -82.5577 11° North 436 502 21,700 2,146 Climbing FlightAware ADS-B
Fri 10:01:17 PM 28.8218 -82.5442 356° North 452 520 24,600 2,102 Climbing FlightAware ADS-B
Fri 10:02:24 PM 28.9628 -82.5565 356° North 457 526 27,200 2,449 Climbing FlightAware ADS-B
Fri 10:02:55 PM 29.0246 -82.5616 356° North 453 521 28,600 3,176 Climbing FlightAware ADS-B
Fri 10:03:32 PM 29.1052 -82.5682 356° North 434 499 30,800 2,519 Climbing FlightAware ADS-B
Fri 10:04:16 PM 29.1916 -82.5754 356° North 425 489 32,000 385 Climbing FlightAware ADS-B
Fri 10:06:39 PM 29.4668 -82.5986 356° North 418 481 32,000  Level FlightAware ADS-B
Fri 10:07:09 PM 29.5271 -82.6035 356° North 418 481 32,000  Level FlightAware ADS-B
Fri 10:07:39 PM 29.5859 -82.6083 356° North 416 479 32,000  Level FlightAware ADS-B
Fri 10:08:09 PM 29.6429 -82.6132 356° North 417 480 32,000  Level FlightAware ADS-B
Fri 10:08:39 PM 29.6973 -82.6178 356° North 418 481 32,000  Level FlightAware ADS-B
Fri 10:09:19 PM 29.7784 -82.6246 356° North 419 482 32,000  Level FlightAware ADS-B
Fri 10:09:58 PM 29.8545 -82.6309 356° North 420 483 32,000 857 Level FlightAware ADS-B
Fri 10:10:29 PM 29.9136 -82.6359 356° North 414 476 33,000 984 Climbing FlightAware ADS-B
Fri 10:10:59 PM 29.9725 -82.6409 356° North 415 478 33,000  Level FlightAware ADS-B
Fri 10:11:29 PM 30.0287 -82.6458 356° North 412 474 33,000  Level FlightAware ADS-B
Fri 10:11:59 PM 30.0857 -82.6506 356° North 410 472 33,000  Level FlightAware ADS-B
Fri 10:12:29 PM 30.1426 -82.6553 356° North 408 470 33,000  Level FlightAware ADS-B
Fri 10:13:10 PM 30.2199 -82.6619 356° North 407 468 33,000  Level FlightAware ADS-B
Fri 10:13:49 PM 30.2933 -82.6681 356° North 407 468 33,000  Level FlightAware ADS-B
Fri 10:14:20 PM 30.3513 -82.6730 356° North 407 468 33,000  Level FlightAware ADS-B
Fri 10:14:59 PM 30.4253 -82.6772 North 413 475 33,000  Level FlightAware ADS-B
Fri 10:15:42 PM 30.4878 -82.6733 North 407 468 33,000  Level Jacksonville Center
Fri 10:16:42 PM 30.6067 -82.6417 13° North 402 463 33,000  Level Jacksonville Center
Fri 10:17:42 PM 30.7233 -82.5906 21° North 419 482 33,000  Level Jacksonville Center
Fri 10:18:42 PM 30.8381 -82.5344 23° Northeast 433 498 33,000  Level Jacksonville Center
Fri 10:19:42 PM 30.9550 -82.4783 22° Northeast 444 511 33,000  Level Jacksonville Center
Fri 10:20:42 PM 31.0736 -82.4194 23° Northeast 451 519 33,000  Level Jacksonville Center
Fri 10:21:42 PM 31.1883 -82.3558 25° Northeast 456 525 33,000  Level Jacksonville Center
Fri 10:22:42 PM 31.3028 -82.2872 27° Northeast 456 525 33,000  Level Jacksonville Center
Fri 10:23:42 PM 31.4153 -82.2231 26° Northeast 456 525 33,000  Level Jacksonville Center
Fri 10:24:42 PM 31.5297 -82.1492 29° Northeast 456 525 33,000  Level Jacksonville Center
Fri 10:25:42 PM 31.6419 -82.0800 28° Northeast 450 518 33,000  Level Jacksonville Center
Fri 10:26:42 PM 31.7667 -82.0031 28° Northeast 456 525 33,000  Level Jacksonville Center
Fri 10:27:42 PM 31.8811 -81.9311 28° Northeast 456 525 33,000  Level Jacksonville Center
Fri 10:28:42 PM 31.9828 -81.8686 28° Northeast 456 525 33,000  Level Jacksonville Center
Fri 10:29:42 PM 32.1075 -81.7914 28° Northeast 450 518 33,000  Level Jacksonville Center
Fri 10:30:42 PM 32.2239 -81.7211 27° Northeast 456 525 33,000  Level Jacksonville Center
Fri 10:31:42 PM 32.3275 -81.6558 28° Northeast 456 525 33,000  Level Jacksonville Center
Fri 10:32:42 PM 32.4519 -81.5756 29° Northeast 456 525 33,000  Level Jacksonville Center
Fri 10:33:42 PM 32.5578 -81.5122 27° Northeast 456 525 33,000  Level Jacksonville Center
Fri 10:34:42 PM 32.6675 -81.4417 28° Northeast 456 525 33,000  Level Jacksonville Center
Fri 10:35:42 PM 32.7858 -81.3681 28° Northeast 464 534 33,000  Level Jacksonville Center
Fri 10:36:42 PM 32.8975 -81.2944 29° Northeast 464 534 33,000 -100 Level Jacksonville Center
Fri 10:37:42 PM 33.0114 -81.2231 28° Northeast 458 527 32,800 -600 Descending Jacksonville Center
Fri 10:38:42 PM 33.1100 -81.1119 43° Northeast 463 533 31,800 -1,750 Descending Jacksonville Center
Fri 10:39:42 PM 33.2108 -81.0033 42° Northeast 475 547 29,300 -2,250 Descending Jacksonville Center
Fri 10:40:42 PM 33.3094 -80.8967 42° Northeast 475 547 27,300 -364 Descending Jacksonville Center
Fri 10:46:01 PM 33.8978 -80.4892 22° Northeast 440 506 27,000 -51 Descending FlightAware ADS-B
Fri 10:46:36 PM 33.9642 -80.4575 22° Northeast 444 511 27,000  Level FlightAware ADS-B
Fri 10:47:06 PM 34.0227 -80.4302 22° Northeast 444 511 27,000 -194 Level FlightAware ADS-B
Fri 10:47:38 PM 34.0824 -80.4020 22° Northeast 441 507 26,800 -1,791 Descending FlightAware ADS-B
Fri 10:48:13 PM 34.1496 -80.3696 22° Northeast 435 501 25,000 -2,229 Descending FlightAware ADS-B
Fri 10:48:48 PM 34.2140 -80.3388 22° Northeast 420 483 24,200 -699 Descending FlightAware ADS-B
Fri 10:49:56 PM 34.3108 -80.2933 22° Northeast 418 481 23,800 -465 Descending Washington Center
Fri 10:50:57 PM 34.4217 -80.2394 22° Northeast 418 481 23,200 -403 Descending Washington Center
Fri 10:51:55 PM 34.5322 -80.1853 22° Northeast 418 481 23,000 -102 Descending Washington Center
Fri 10:52:55 PM 34.6383 -80.1331 22° Northeast 418 481 23,000  Level Washington Center
Fri 10:53:57 PM 34.7469 -80.0786 22° Northeast 418 481 23,000  Level Washington Center
Fri 10:54:55 PM 34.8525 -79.9908 34° Northeast 413 475 23,000  Level Washington Center
Fri 10:55:56 PM 34.9372 -79.8964 42° Northeast 411 473 23,000 -397 Level Washington Center
Fri 10:56:56 PM 35.0242 -79.7997 42° Northeast 411 473 22,200 -900 Descending Washington Center
Fri 10:57:56 PM 35.1108 -79.7053 42° Northeast 411 473 21,200 -1,008 Descending Washington Center
Fri 10:58:55 PM 35.1933 -79.6128 42° Northeast 405 466 20,200 -1,008 Descending Washington Center
Fri 10:59:55 PM 35.2733 -79.5328 39° Northeast 386 444 19,200 -595 Descending Washington Center
Fri 11:00:56 PM 35.3044 -79.4072 73° East 364 419 19,000 -450 Descending Washington Center
Fri 11:01:55 PM 35.3517 -79.2947 63° Northeast 371 427 18,300 -870 Descending Washington Center
Fri 11:02:05 PM 35.3625 -79.2903 18° North 369 425 18,000 -2,066 Descending Washington Center
Fri 11:02:56 PM 35.4311 -79.2933 358° North 295 339 16,200 -2,222 Descending Washington Center
Fri 11:02:59 PM 35.4392 -79.3014 321° Northwest 296 341 16,000 -1,967 Descending Washington Center
Fri 11:03:57 PM 35.4917 -79.3600 318° Northwest 240 276 14,200 -1,881 Descending Washington Center
Fri 11:04:06 PM 35.5061 -79.3631 350° North 289 333 13,900 -1,655 Descending Washington Center
Fri 11:04:55 PM 35.5622 -79.3097 38° Northeast 279 321 12,600 -1,574 Descending Washington Center
Fri 11:05:07 PM 35.5733 -79.2872 59° Northeast 355 409 12,300 -1,500 Descending Washington Center
Fri 11:05:55 PM 35.6192 -79.2203 50° Northeast 297 342 11,100 -1,600 Descending Washington Center
Fri 11:06:07 PM 35.6322 -79.2031 47° Northeast 331 381 10,700 -1,800 Descending Washington Center
Fri 11:06:55 PM 35.6886 -79.1314 46° Northeast 313 360 9,300 -1,600 Descending Washington Center
Fri 11:07:07 PM 35.6972 -79.1217 43° Northeast 324 373 9,100 -1,300 Descending Washington Center
Fri 11:07:55 PM 35.7469 -79.0572 46° Northeast 318 366 8,000 -1,400 Descending Washington Center
Fri 11:08:07 PM 35.7600 -79.0372 51° Northeast 311 358 7,700 -1,548 Descending Washington Center
Fri 11:08:57 PM 35.8056 -78.9803 45° Northeast 308 354 6,400 -1,652 Descending Washington Center
Fri 11:09:16 PM 35.8228 -78.9581 46° Northeast 298 343 5,800 -1,759 Descending Washington Center
Fri 11:09:55 PM 35.8661 -78.9061 44° Northeast 308 354 4,700 -1,500 Descending Washington Center
Fri 11:10:16 PM 35.8833 -78.8864 43° Northeast 305 351 4,300 -590 Descending Washington Center
Fri 11:10:56 PM 35.9325 -78.8472 33° Northeast 295 339 4,100 -358 Descending Washington Center
Fri 11:11:23 PM 35.9581 -78.8253 35° Northeast 293 337 3,900 -800 Descending Washington Center
Fri 11:11:56 PM 35.9986 -78.7911 34° Northeast 290 334 3,300 -800 Descending Washington Center
Fri 11:12:23 PM 36.0222 -78.7689 37° Northeast 291 335 3,100 -207 Descending Washington Center
Fri 11:13:23 PM 36.0550 -78.7058 57° Northeast 209 241 3,000 -393 Descending Washington Center
Fri 11:14:25 PM 36.0206 -78.6661 137° Southeast 127 146 2,300 -341 Descending Washington Center
Fri 11:15:26 PM 35.9914 -78.6725 190° South 101 116 2,300  Level Washington Center
Fri 11:16:26 PM 35.9636 -78.6894 206° Southwest 109 125 2,300 -240 Level Washington Center
Fri 11:17:31 PM 35.9419 -78.7219 231° Southwest 112 129 1,800 -476 Descending Washington Center
Fri 11:18:32 PM 35.9225 -78.7444 223° Southwest 101 116 1,300 -541 Descending Washington Center
Fri 11:19:33 PM 35.8989 -78.7742 226° Southwest 114 131 700 -590 Descending Washington Center
Fri 11:21:00 PM 35.8776 -78.7875 North  Level Estimated

Login

Don't have an account? Register now (free) for customized features, flight alerts, and more!